createdAt,value
2018-08-31T00:01:40.197Z,101793.88
2018-08-31T00:04:52.176Z,101795.25
2018-08-31T00:07:38.467Z,101794.23
2018-08-31T00:12:50.721Z,101787.39
2018-08-31T00:15:20.046Z,101782.53
2018-08-31T00:17:49.304Z,101785.63
2018-08-31T00:20:19.046Z,101779.89
2018-08-31T00:22:48.432Z,101782.11
2018-08-31T00:26:06.585Z,101787.06
2018-08-31T00:29:08.238Z,101782.27
2018-08-31T00:34:12.802Z,101779.81
2018-08-31T00:38:09.717Z,101786.21
2018-08-31T00:41:31.630Z,101782.13
2018-08-31T00:46:22.023Z,101783.84
2018-08-31T00:48:51.321Z,101787.60
2018-08-31T00:51:20.769Z,101782.00
2018-08-31T00:53:50.089Z,101785.95
2018-08-31T00:56:19.463Z,101784.93
2018-08-31T00:58:48.828Z,101784.59
2018-08-31T01:01:18.284Z,101795.48
2018-08-31T01:03:47.641Z,101779.30
2018-08-31T01:06:16.949Z,101795.81
2018-08-31T01:08:46.353Z,101792.39
2018-08-31T01:11:15.716Z,101793.92
2018-08-31T01:13:45.088Z,101788.97
2018-08-31T01:16:14.406Z,101789.66
2018-08-31T01:18:43.751Z,101788.31
2018-08-31T01:21:13.054Z,101787.56
2018-08-31T01:23:42.501Z,101790.35
2018-08-31T01:26:12.134Z,101796.99
2018-08-31T01:28:41.470Z,101798.97
2018-08-31T01:31:10.817Z,101801.59
2018-08-31T01:33:40.226Z,101799.92
2018-08-31T01:36:09.592Z,101800.78
2018-08-31T01:38:38.883Z,101795.46
2018-08-31T01:41:08.429Z,101801.77
2018-08-31T01:43:37.712Z,101800.59
2018-08-31T01:46:06.980Z,101798.52
2018-08-31T01:48:36.386Z,101796.83
2018-08-31T01:51:10.927Z,101795.91
2018-08-31T01:53:40.370Z,101793.31
2018-08-31T01:56:09.748Z,101795.70
2018-08-31T01:58:39.074Z,101796.83
2018-08-31T02:01:08.422Z,101794.62
2018-08-31T02:03:37.980Z,101798.89
2018-08-31T02:06:07.530Z,101801.47
2018-08-31T02:08:41.564Z,101800.78
2018-08-31T02:11:10.887Z,101813.27
2018-08-31T02:13:40.233Z,101811.88
2018-08-31T02:16:10.184Z,101818.41
2018-08-31T02:18:39.482Z,101816.98
2018-08-31T02:21:08.748Z,101809.34
2018-08-31T02:23:38.392Z,101818.61
2018-08-31T02:26:07.659Z,101818.88
2018-08-31T02:28:36.925Z,101820.77
2018-08-31T02:31:06.599Z,101808.52
2018-08-31T02:33:36.260Z,101805.02
2018-08-31T02:36:05.670Z,101820.88
2018-08-31T02:38:35.051Z,101816.63
2018-08-31T02:41:05.343Z,101809.72
2018-08-31T02:43:34.693Z,101812.62
2018-08-31T02:46:04.035Z,101814.90
2018-08-31T02:48:33.361Z,101808.05
2018-08-31T02:51:02.775Z,101817.55
2018-08-31T02:53:32.383Z,101809.61
2018-08-31T02:56:01.714Z,101816.81
2018-08-31T02:58:31.128Z,101811.43
2018-08-31T03:01:00.484Z,101806.87
2018-08-31T03:03:29.849Z,101805.07
2018-08-31T03:05:59.155Z,101805.17
2018-08-31T03:08:28.506Z,101814.53
2018-08-31T03:10:57.815Z,101807.34
2018-08-31T03:13:27.155Z,101807.63
2018-08-31T03:15:56.791Z,101810.36
2018-08-31T03:18:26.146Z,101806.03
2018-08-31T03:20:57.793Z,101807.64
2018-08-31T03:23:27.234Z,101808.59
2018-08-31T03:25:56.780Z,101813.18
2018-08-31T03:28:26.221Z,101812.33
2018-08-31T03:30:55.625Z,101811.98
2018-08-31T03:33:24.923Z,101820.03
2018-08-31T03:35:54.229Z,101818.44
2018-08-31T03:38:23.628Z,101818.22
2018-08-31T03:40:52.947Z,101818.11
2018-08-31T03:43:22.292Z,101821.18
2018-08-31T03:45:51.609Z,101815.05
2018-08-31T03:48:20.899Z,101813.69
2018-08-31T03:50:50.211Z,101819.07
2018-08-31T03:53:19.544Z,101818.28
2018-08-31T03:55:48.792Z,101815.69
2018-08-31T03:58:18.121Z,101815.11
2018-08-31T04:00:47.680Z,101816.47
2018-08-31T04:03:16.974Z,101814.61
2018-08-31T04:05:46.301Z,101813.88
2018-08-31T04:08:15.622Z,101808.50
2018-08-31T04:10:44.907Z,101808.85
2018-08-31T04:13:14.308Z,101805.84
2018-08-31T04:15:43.711Z,101812.59
2018-08-31T04:18:13.275Z,101812.80
2018-08-31T04:20:42.797Z,101817.17
2018-08-31T04:23:12.429Z,101813.16
2018-08-31T04:25:41.776Z,101818.38
2018-08-31T04:28:11.242Z,101825.92
2018-08-31T04:30:40.579Z,101821.53
2018-08-31T04:33:09.902Z,101830.27
2018-08-31T04:35:39.245Z,101827.86
2018-08-31T04:38:08.612Z,101833.16
2018-08-31T04:40:37.932Z,101831.88
2018-08-31T04:43:07.367Z,101831.55
2018-08-31T04:45:37.166Z,101830.13
2018-08-31T04:48:06.639Z,101829.11
2018-08-31T04:50:35.940Z,101834.32
2018-08-31T04:53:05.512Z,101834.25
2018-08-31T04:55:34.856Z,101835.48
2018-08-31T04:58:04.178Z,101835.88
2018-08-31T05:00:33.995Z,101841.78
2018-08-31T05:03:03.317Z,101838.41
2018-08-31T05:05:32.616Z,101837.34
2018-08-31T05:08:02.339Z,101831.55
2018-08-31T05:10:31.853Z,101836.17
2018-08-31T05:13:01.195Z,101837.85
2018-08-31T05:15:30.560Z,101829.52
2018-08-31T05:17:59.994Z,101839.33
2018-08-31T05:20:29.320Z,101830.52
2018-08-31T05:22:58.679Z,101836.10
2018-08-31T05:25:28.004Z,101834.44
2018-08-31T05:27:57.474Z,101831.59
2018-08-31T05:30:26.908Z,101836.74
2018-08-31T05:32:56.414Z,101836.01
2018-08-31T05:35:25.747Z,101837.41
2018-08-31T05:37:55.047Z,101833.91
2018-08-31T05:40:24.346Z,101839.70
2018-08-31T05:42:53.679Z,101840.13
2018-08-31T05:45:23.008Z,101840.53
2018-08-31T05:47:52.311Z,101841.91
2018-08-31T05:50:21.616Z,101841.20
2018-08-31T05:52:51.019Z,101842.94
2018-08-31T05:55:20.343Z,101844.36
2018-08-31T05:57:49.682Z,101844.20
2018-08-31T06:00:19.087Z,101847.62
2018-08-31T06:02:48.446Z,101852.94
2018-08-31T06:05:17.804Z,101847.48
2018-08-31T06:07:47.429Z,101848.52
2018-08-31T06:10:16.797Z,101850.73
2018-08-31T06:12:46.231Z,101857.39
2018-08-31T06:15:16.098Z,101863.87
2018-08-31T06:17:45.563Z,101861.31
2018-08-31T06:20:14.918Z,101862.14
2018-08-31T06:22:44.304Z,101867.45
2018-08-31T06:25:13.606Z,101868.61
2018-08-31T06:27:43.317Z,101866.88
2018-08-31T06:30:12.764Z,101864.19
2018-08-31T06:32:42.111Z,101860.37
2018-08-31T06:35:11.616Z,101865.44
2018-08-31T06:37:41.254Z,101866.49
2018-08-31T06:40:10.662Z,101868.59
2018-08-31T06:42:40.022Z,101871.14
2018-08-31T06:45:09.556Z,101872.24
2018-08-31T06:47:39.061Z,101867.08
2018-08-31T06:50:08.540Z,101869.39
2018-08-31T06:52:37.994Z,101867.53
2018-08-31T06:55:07.322Z,101869.16
2018-08-31T06:57:36.699Z,101866.71
2018-08-31T07:00:07.443Z,101854.47
2018-08-31T07:02:36.816Z,101866.83
2018-08-31T07:05:07.290Z,101870.95
2018-08-31T07:07:37.368Z,101864.07
2018-08-31T07:10:06.924Z,101869.88
2018-08-31T07:12:36.420Z,101866.73
2018-08-31T07:15:07.034Z,101865.87
2018-08-31T07:17:36.456Z,101863.38
2018-08-31T07:20:06.121Z,101867.95
2018-08-31T07:22:36.458Z,101866.39
2018-08-31T07:25:05.961Z,101865.02
2018-08-31T07:27:35.365Z,101871.13
2018-08-31T07:30:04.919Z,101870.08
2018-08-31T07:32:34.782Z,101875.75
2018-08-31T07:35:04.316Z,101876.19
2018-08-31T07:37:33.709Z,101875.86
2018-08-31T07:40:03.216Z,101875.97
2018-08-31T07:42:32.773Z,101873.47
2018-08-31T07:45:02.328Z,101873.91
2018-08-31T07:47:31.690Z,101883.80
2018-08-31T07:50:01.157Z,101877.87
2018-08-31T07:52:30.652Z,101878.55
2018-08-31T07:55:00.195Z,101879.81
2018-08-31T07:57:29.748Z,101878.23
2018-08-31T07:59:59.279Z,101876.35
2018-08-31T08:02:29.206Z,101875.38
2018-08-31T08:04:58.665Z,101875.92
2018-08-31T08:07:28.527Z,101874.83
2018-08-31T08:09:57.944Z,101890.39
2018-08-31T08:12:27.329Z,101876.64
2018-08-31T08:14:56.799Z,101880.95
2018-08-31T08:17:26.357Z,101884.48
2018-08-31T08:19:55.838Z,101882.89
2018-08-31T08:22:25.479Z,101882.34
2018-08-31T08:24:54.839Z,101877.41
2018-08-31T08:27:24.170Z,101881.70
2018-08-31T08:29:53.652Z,101884.81
2018-08-31T08:32:23.047Z,101881.86
2018-08-31T08:34:52.343Z,101890.94
2018-08-31T08:37:21.776Z,101900.33
2018-08-31T08:39:51.089Z,101895.16
2018-08-31T08:42:20.513Z,101896.80
2018-08-31T08:44:49.861Z,101889.75
2018-08-31T08:47:19.303Z,101882.68
2018-08-31T08:49:48.674Z,101891.25
2018-08-31T08:52:18.911Z,101900.53
2018-08-31T08:54:48.272Z,101890.07
2018-08-31T08:57:17.671Z,101897.63
2018-08-31T08:59:47.060Z,101897.11
2018-08-31T09:02:16.694Z,101889.16
2018-08-31T09:04:46.107Z,101896.00
2018-08-31T09:07:17.432Z,101900.55
2018-08-31T09:09:47.974Z,101889.92
2018-08-31T09:12:20.738Z,101895.47
2018-08-31T09:14:50.096Z,101907.45
2018-08-31T09:17:19.458Z,101901.09
2018-08-31T09:19:48.984Z,101904.04
2018-08-31T09:22:18.340Z,101906.59
2018-08-31T09:24:47.709Z,101907.92
2018-08-31T09:27:17.150Z,101919.41
2018-08-31T09:29:46.512Z,101920.38
2018-08-31T09:32:21.489Z,101911.00
2018-08-31T09:34:52.670Z,101909.66
2018-08-31T09:37:22.137Z,101910.91
2018-08-31T09:39:51.467Z,101913.66
2018-08-31T09:42:20.896Z,101909.22
2018-08-31T09:44:50.362Z,101899.92
2018-08-31T09:47:19.806Z,101903.44
2018-08-31T09:49:49.310Z,101901.09
2018-08-31T09:52:19.278Z,101900.23
2018-08-31T09:54:48.622Z,101898.11
2018-08-31T09:57:18.094Z,101904.33
2018-08-31T09:59:47.474Z,101893.48
2018-08-31T10:02:22.318Z,101898.43
2018-08-31T10:04:51.675Z,101901.00
2018-08-31T10:07:21.106Z,101895.22
2018-08-31T10:09:50.675Z,101897.91
2018-08-31T10:12:20.346Z,101901.44
2018-08-31T10:14:49.772Z,101899.53
2018-08-31T10:17:24.063Z,101895.04
2018-08-31T10:19:53.731Z,101895.10
2018-08-31T10:22:23.278Z,101887.34
2018-08-31T10:24:52.638Z,101886.43
2018-08-31T10:27:22.099Z,101882.30
2018-08-31T10:29:51.489Z,101883.42
2018-08-31T10:32:21.232Z,101890.72
2018-08-31T10:34:50.627Z,101898.30
2018-08-31T10:37:19.968Z,101886.98
2018-08-31T10:39:49.409Z,101883.39
2018-08-31T10:42:18.814Z,101878.92
2018-08-31T10:44:48.140Z,101877.69
2018-08-31T10:47:17.516Z,101877.37
2018-08-31T10:49:46.858Z,101880.34
2018-08-31T10:52:16.449Z,101882.45
2018-08-31T10:54:46.403Z,101868.01
2018-08-31T10:57:15.786Z,101871.09
2018-08-31T10:59:45.740Z,101880.14
2018-08-31T11:02:15.211Z,101877.30
2018-08-31T11:04:44.827Z,101868.33
2018-08-31T11:07:14.338Z,101869.66
2018-08-31T11:09:44.255Z,101875.60
2018-08-31T11:12:13.883Z,101864.87
2018-08-31T11:14:43.292Z,101861.23
2018-08-31T11:17:12.856Z,101870.02
2018-08-31T11:19:42.255Z,101868.45
2018-08-31T11:22:11.668Z,101874.73
2018-08-31T11:24:41.128Z,101873.69
2018-08-31T11:27:10.659Z,101879.56
2018-08-31T11:29:40.122Z,101875.70
2018-08-31T11:32:09.500Z,101869.36
2018-08-31T11:34:38.942Z,101878.81
2018-08-31T11:37:08.304Z,101871.61
2018-08-31T11:39:38.048Z,101874.36
2018-08-31T11:42:07.489Z,101869.47
2018-08-31T11:44:36.917Z,101869.53
2018-08-31T11:47:06.382Z,101864.11
2018-08-31T11:49:35.798Z,101859.03
2018-08-31T11:52:05.167Z,101855.77
2018-08-31T11:54:35.231Z,101854.86
2018-08-31T11:57:04.604Z,101859.55
2018-08-31T11:59:33.932Z,101851.41
2018-08-31T12:02:04.098Z,101850.20
2018-08-31T12:04:33.395Z,101844.17
2018-08-31T12:07:02.724Z,101847.23
2018-08-31T12:09:32.050Z,101859.80
2018-08-31T12:12:04.386Z,101864.31
2018-08-31T12:14:33.986Z,101859.30
2018-08-31T12:17:03.720Z,101860.57
2018-08-31T12:19:33.067Z,101852.14
2018-08-31T12:22:02.775Z,101852.67
2018-08-31T12:24:32.251Z,101858.81
2018-08-31T12:27:01.580Z,101862.23
2018-08-31T12:29:30.953Z,101858.96
2018-08-31T12:32:00.235Z,101856.23
2018-08-31T12:34:29.588Z,101862.67
2018-08-31T12:36:58.944Z,101859.02
2018-08-31T12:39:28.365Z,101855.05
2018-08-31T12:41:57.715Z,101861.45
2018-08-31T12:44:27.498Z,101863.69
2018-08-31T12:46:56.764Z,101859.14
2018-08-31T12:49:26.063Z,101859.77
2018-08-31T12:51:55.437Z,101859.47
2018-08-31T12:54:24.764Z,101866.67
2018-08-31T12:56:54.175Z,101854.11
2018-08-31T12:59:23.618Z,101852.88
2018-08-31T13:01:52.952Z,101861.50
2018-08-31T13:04:22.297Z,101854.45
2018-08-31T13:06:52.074Z,101854.55
2018-08-31T13:09:21.482Z,101852.30
2018-08-31T13:11:50.807Z,101851.94
2018-08-31T13:14:20.167Z,101857.05
2018-08-31T13:16:49.459Z,101850.66
2018-08-31T13:19:18.791Z,101847.30
2018-08-31T13:21:48.178Z,101845.64
2018-08-31T13:24:17.762Z,101855.61
2018-08-31T13:26:47.171Z,101848.19
2018-08-31T13:29:17.028Z,101851.22
2018-08-31T13:31:46.436Z,101855.37
2018-08-31T13:34:15.854Z,101850.39
2018-08-31T13:36:45.222Z,101850.42
2018-08-31T13:39:14.562Z,101846.83
2018-08-31T13:41:43.839Z,101851.91
2018-08-31T13:44:13.182Z,101851.77
2018-08-31T13:46:42.672Z,101850.89
2018-08-31T13:49:12.191Z,101854.65
2018-08-31T13:51:41.820Z,101844.34
2018-08-31T13:54:11.274Z,101853.22
2018-08-31T13:56:40.678Z,101854.44
2018-08-31T13:59:10.087Z,101852.02
2018-08-31T14:01:39.454Z,101850.12
2018-08-31T14:04:08.782Z,101850.92
2018-08-31T14:06:38.147Z,101848.80
2018-08-31T14:09:08.258Z,101844.61
2018-08-31T14:11:37.623Z,101847.68
2018-08-31T14:14:07.324Z,101849.20
2018-08-31T14:16:37.361Z,101840.22
2018-08-31T14:19:08.625Z,101852.06
2018-08-31T14:21:38.342Z,101841.91
2018-08-31T14:24:08.367Z,101843.39
2018-08-31T14:26:37.779Z,101839.08
2018-08-31T14:29:07.223Z,101843.08
2018-08-31T14:31:36.594Z,101844.94
2018-08-31T14:34:06.442Z,101838.55
2018-08-31T14:36:35.900Z,101832.50
2018-08-31T14:39:07.871Z,101842.14
2018-08-31T14:41:37.443Z,101842.69
2018-08-31T14:44:08.680Z,101846.56
2018-08-31T14:46:37.838Z,101850.44
2018-08-31T14:49:08.227Z,101849.20
2018-08-31T14:51:37.656Z,101851.83
2018-08-31T14:54:07.153Z,101853.23
2018-08-31T14:56:36.556Z,101851.88
2018-08-31T14:59:05.921Z,101855.61
2018-08-31T15:01:35.311Z,101856.90
2018-08-31T15:04:04.776Z,101854.39
2018-08-31T15:06:34.181Z,101857.98
2018-08-31T15:09:03.737Z,101857.41
2018-08-31T15:11:33.052Z,101852.62
2018-08-31T15:14:02.416Z,101853.82
2018-08-31T15:16:32.479Z,101857.61
2018-08-31T15:19:02.181Z,101852.89
2018-08-31T15:21:31.646Z,101857.95
2018-08-31T15:24:01.245Z,101854.42
2018-08-31T15:26:30.582Z,101860.23
2018-08-31T15:28:59.952Z,101864.70
2018-08-31T15:31:29.393Z,101859.98
2018-08-31T15:33:58.714Z,101858.69
2018-08-31T15:36:28.018Z,101850.79
2018-08-31T15:38:57.851Z,101854.73
2018-08-31T15:41:27.270Z,101852.52
2018-08-31T15:43:57.720Z,101857.00
2018-08-31T15:46:27.374Z,101855.48
2018-08-31T15:48:56.871Z,101854.95
2018-08-31T15:51:26.390Z,101855.19
2018-08-31T15:53:56.710Z,101849.27
2018-08-31T15:56:26.349Z,101846.20
2018-08-31T15:58:56.701Z,101858.48
2018-08-31T16:01:26.460Z,101846.44
2018-08-31T16:03:55.991Z,101855.53
2018-08-31T16:06:25.290Z,101855.77
2018-08-31T16:08:54.660Z,101849.98
2018-08-31T16:11:24.233Z,101851.39
2018-08-31T16:13:53.653Z,101853.78
2018-08-31T16:16:23.127Z,101847.23
2018-08-31T16:18:52.601Z,101849.05
2018-08-31T16:21:22.006Z,101849.95
2018-08-31T16:23:51.719Z,101852.42
2018-08-31T16:26:21.100Z,101852.56
2018-08-31T16:28:50.586Z,101855.34
2018-08-31T16:31:20.268Z,101860.71
2018-08-31T16:33:49.880Z,101863.95
2018-08-31T16:36:19.249Z,101860.61
2018-08-31T16:38:48.655Z,101863.77
2018-08-31T16:41:17.960Z,101865.13
2018-08-31T16:43:47.387Z,101864.94
2018-08-31T16:46:17.102Z,101867.56
2018-08-31T16:48:46.711Z,101872.90
2018-08-31T16:51:16.120Z,101875.52
2018-08-31T16:53:45.848Z,101874.83
2018-08-31T16:56:15.314Z,101872.72
2018-08-31T16:58:44.716Z,101876.55
2018-08-31T17:01:14.194Z,101871.26
2018-08-31T17:03:43.547Z,101870.95
2018-08-31T17:06:13.251Z,101869.58
2018-08-31T17:08:43.140Z,101875.73
2018-08-31T17:11:12.570Z,101880.97
2018-08-31T17:13:41.910Z,101881.22
2018-08-31T17:16:11.439Z,101884.64
2018-08-31T17:18:40.783Z,101889.97
2018-08-31T17:21:10.142Z,101888.69
2018-08-31T17:23:39.554Z,101886.77
2018-08-31T17:26:13.198Z,101896.77
2018-08-31T17:28:48.164Z,101889.95
2018-08-31T17:31:22.752Z,101900.36
2018-08-31T17:33:57.476Z,101901.00
2018-08-31T17:36:32.032Z,101901.52
2018-08-31T17:39:01.428Z,101906.73
2018-08-31T17:41:30.939Z,101911.83
2018-08-31T17:44:00.412Z,101914.38
2018-08-31T17:46:30.818Z,101913.94
2018-08-31T17:49:00.174Z,101913.20
2018-08-31T17:51:30.818Z,101916.80
2018-08-31T17:54:00.368Z,101923.88
2018-08-31T17:56:30.015Z,101927.88
2018-08-31T17:58:59.343Z,101923.41
2018-08-31T18:01:28.855Z,101927.91
2018-08-31T18:03:58.322Z,101934.78
2018-08-31T18:06:29.118Z,101936.64
2018-08-31T18:08:58.559Z,101940.22
2018-08-31T18:11:28.819Z,101937.58
2018-08-31T18:13:58.210Z,101933.59
2018-08-31T18:16:28.726Z,101931.23
2018-08-31T18:18:58.180Z,101943.28
2018-08-31T18:21:31.406Z,101942.63
2018-08-31T18:24:00.885Z,101950.20
2018-08-31T18:26:30.234Z,101946.41
2018-08-31T18:28:59.580Z,101951.67
2018-08-31T18:31:29.051Z,101948.30
2018-08-31T18:33:58.408Z,101952.25
2018-08-31T18:36:27.932Z,101946.42
2018-08-31T18:38:57.630Z,101949.67
2018-08-31T18:41:27.276Z,101957.06
2018-08-31T18:43:56.919Z,101955.37
2018-08-31T18:46:26.553Z,101965.87
2018-08-31T18:48:56.036Z,101965.61
2018-08-31T18:51:25.686Z,101970.26
2018-08-31T18:53:55.125Z,101972.42
2018-08-31T18:56:24.542Z,101974.25
2018-08-31T18:58:54.171Z,101987.38
2018-08-31T19:01:24.499Z,101986.85
2018-08-31T19:03:54.013Z,101981.40
2018-08-31T19:06:23.624Z,101982.00
2018-08-31T19:08:53.238Z,101985.56
2018-08-31T19:11:22.752Z,101991.69
2018-08-31T19:13:52.257Z,101988.97
2018-08-31T19:16:21.750Z,101988.03
2018-08-31T19:18:51.760Z,101988.33
2018-08-31T19:21:21.288Z,101990.38
2018-08-31T19:23:50.834Z,101992.13
2018-08-31T19:26:20.289Z,101978.55
2018-08-31T19:28:51.027Z,101991.00
2018-08-31T19:31:20.581Z,101989.35
2018-08-31T19:33:50.984Z,101989.92
2018-08-31T19:36:20.813Z,101994.04
2018-08-31T19:38:50.478Z,101990.20
2018-08-31T19:41:20.032Z,101992.09
2018-08-31T19:43:49.637Z,101994.61
2018-08-31T19:46:19.213Z,101997.33
2018-08-31T19:48:48.834Z,101998.70
2018-08-31T19:51:18.461Z,102006.51
2018-08-31T19:53:47.945Z,101997.70
2018-08-31T19:56:17.316Z,102005.75
2018-08-31T19:58:46.900Z,102002.55
2018-08-31T20:01:16.395Z,102010.36
2018-08-31T20:03:46.337Z,102009.47
2018-08-31T20:06:15.883Z,102014.88
2018-08-31T20:08:45.536Z,102017.06
2018-08-31T20:11:14.984Z,102014.36
2018-08-31T20:13:44.915Z,102015.40
2018-08-31T20:16:14.406Z,102016.73
2018-08-31T20:18:43.814Z,102027.25
2018-08-31T20:21:13.425Z,102020.68
2018-08-31T20:23:42.996Z,102027.62
2018-08-31T20:26:12.381Z,102020.30
2018-08-31T20:28:41.875Z,102030.62
2018-08-31T20:31:11.451Z,102026.30
2018-08-31T20:33:41.023Z,102030.08
2018-08-31T20:36:10.993Z,102029.08
2018-08-31T20:38:40.603Z,102029.04
2018-08-31T20:41:10.000Z,102039.61
2018-08-31T20:43:39.742Z,102040.06
2018-08-31T20:46:09.157Z,102041.19
2018-08-31T20:48:38.798Z,102037.23
2018-08-31T20:51:08.271Z,102045.72
2018-08-31T20:53:37.765Z,102045.38
2018-08-31T20:56:07.259Z,102050.75
2018-08-31T20:58:36.909Z,102046.18
2018-08-31T21:01:06.354Z,102047.94
2018-08-31T21:03:36.060Z,102057.59
2018-08-31T21:06:05.575Z,102054.88
2018-08-31T21:08:35.010Z,102059.70
2018-08-31T21:11:04.372Z,102059.33
2018-08-31T21:13:33.811Z,102055.39
2018-08-31T21:16:03.335Z,102052.75
2018-08-31T21:18:32.680Z,102056.54
2018-08-31T21:21:02.294Z,102056.14
2018-08-31T21:23:31.609Z,102051.88
2018-08-31T21:26:00.895Z,102057.33
2018-08-31T21:28:30.223Z,102058.41
2018-08-31T21:30:59.575Z,102061.39
2018-08-31T21:33:28.965Z,102059.62
2018-08-31T21:35:58.347Z,102060.59
2018-08-31T21:38:27.729Z,102058.95
2018-08-31T21:40:57.200Z,102060.66
2018-08-31T21:43:27.130Z,102064.25
2018-08-31T21:45:56.584Z,102063.09
2018-08-31T21:48:25.961Z,102066.45
2018-08-31T21:50:55.398Z,102070.20
2018-08-31T21:53:24.870Z,102077.33
2018-08-31T21:55:54.331Z,102073.31
2018-08-31T21:58:23.878Z,102069.72
2018-08-31T22:00:57.440Z,102068.09
2018-08-31T22:03:27.244Z,102071.97
2018-08-31T22:05:56.851Z,102077.12
2018-08-31T22:08:26.323Z,102068.09
2018-08-31T22:10:55.733Z,102071.22
2018-08-31T22:13:25.204Z,102065.58
2018-08-31T22:15:55.870Z,102064.31
2018-08-31T22:18:25.363Z,102066.71
2018-08-31T22:20:54.769Z,102073.19
2018-08-31T22:23:24.318Z,102063.91
2018-08-31T22:25:55.892Z,102070.69
2018-08-31T22:28:26.323Z,102070.70
2018-08-31T22:30:56.424Z,102070.35
2018-08-31T22:33:26.103Z,102074.06
2018-08-31T22:35:55.987Z,102076.51
2018-08-31T22:38:25.334Z,102073.86
2018-08-31T22:40:54.870Z,102071.98
2018-08-31T22:43:30.605Z,102074.57
2018-08-31T22:46:00.086Z,102069.45
2018-08-31T22:48:29.467Z,102072.53
2018-08-31T22:50:59.765Z,102071.42
2018-08-31T22:53:29.267Z,102069.16
2018-08-31T22:55:59.416Z,102065.05
2018-08-31T22:58:29.109Z,102064.70
2018-08-31T23:00:58.960Z,102072.05
2018-08-31T23:03:28.706Z,102069.16
2018-08-31T23:05:58.587Z,102075.48
2018-08-31T23:08:27.990Z,102069.33
2018-08-31T23:10:57.321Z,102074.00
2018-08-31T23:13:26.692Z,102069.88
2018-08-31T23:15:56.095Z,102072.45
2018-08-31T23:18:25.431Z,102072.95
2018-08-31T23:20:54.793Z,102067.84
2018-08-31T23:23:33.206Z,102077.08
2018-08-31T23:26:02.859Z,102071.45
2018-08-31T23:28:32.256Z,102075.88
2018-08-31T23:31:01.900Z,102077.08
2018-08-31T23:33:31.366Z,102074.33
2018-08-31T23:36:00.744Z,102083.78
2018-08-31T23:38:30.107Z,102075.92
2018-08-31T23:40:59.501Z,102075.06
2018-08-31T23:43:28.940Z,102076.08
2018-08-31T23:45:58.463Z,102073.37
2018-08-31T23:48:28.058Z,102076.28
2018-08-31T23:50:57.414Z,102082.60
2018-08-31T23:53:26.849Z,102076.80
2018-08-31T23:55:56.337Z,102078.48
2018-08-31T23:58:25.664Z,102076.95
